Time;durP1;ratioP1;P1;durP2;ratioP2;P2;SDS_P1;SDS_P2;PMS_P1;PMS_P2;Temp;Humidity;BMP_temperature;BMP_pressure;BME280_temperature;BME280_humidity;BME280_pressure;Samples;Min_cycle;Max_cycle;Signal;HPM_P1;HPM_P2
2023/07/31 00:01:04;;;;;;;0.50;0.50;;;16.30;99.90;;;;;;5087489;27;20055;-83
2023/07/31 00:03:30;;;;;;;0.50;0.50;;;16.20;99.90;;;;;;5082026;28;20043;-86
2023/07/31 00:05:55;;;;;;;0.50;0.50;;;16.50;99.90;;;;;;5086143;28;20035;-82
2023/07/31 00:08:22;;;;;;;0.50;0.50;;;16.40;99.90;;;;;;5085493;28;20051;-85
2023/07/31 00:10:50;;;;;;;0.50;0.50;;;16.30;99.90;;;;;;5086730;28;20053;-89
2023/07/31 00:13:16;;;;;;;0.50;0.50;;;16.30;99.90;;;;;;5065034;28;20052;-85
2023/07/31 00:15:42;;;;;;;0.50;0.50;;;16.10;99.90;;;;;;5084028;28;20128;-85
2023/07/31 00:18:07;;;;;;;0.50;0.50;;;16.30;99.90;;;;;;5083760;28;20455;-85
2023/07/31 00:20:33;;;;;;;0.50;0.50;;;16.20;99.90;;;;;;5084162;28;20054;-86
2023/07/31 00:22:58;;;;;;;0.50;0.50;;;16.30;99.90;;;;;;5063206;28;20051;-87
2023/07/31 00:25:24;;;;;;;0.50;0.50;;;16.40;99.90;;;;;;5068065;28;20040;-86
2023/07/31 00:27:50;;;;;;;0.50;0.50;;;16.30;99.90;;;;;;5064430;28;20047;-86
2023/07/31 00:30:16;;;;;;;0.50;0.50;;;16.00;99.90;;;;;;5080168;28;20080;-86
2023/07/31 00:32:41;;;;;;;0.50;0.50;;;16.00;99.90;;;;;;5069284;27;20129;-88
2023/07/31 00:35:07;;;;;;;0.50;0.50;;;16.10;99.90;;;;;;5084461;27;20066;-86
2023/07/31 00:37:35;;;;;;;0.50;0.50;;;16.00;99.90;;;;;;5081715;28;20477;-91
2023/07/31 00:40:03;;;;;;;0.50;0.50;;;16.20;99.90;;;;;;5082218;28;20035;-92
2023/07/31 00:42:29;;;;;;;0.50;0.50;;;16.00;99.90;;;;;;5065476;28;20488;-86
2023/07/31 00:44:54;;;;;;;0.50;0.50;;;15.90;99.90;;;;;;5080922;28;20043;-84
2023/07/31 00:47:23;;;;;;;0.50;0.50;;;16.00;99.90;;;;;;5066327;28;20087;-91
2023/07/31 00:49:49;;;;;;;0.50;0.50;;;16.00;99.90;;;;;;5083838;28;20044;-89
2023/07/31 00:52:15;;;;;;;0.50;0.50;;;16.00;99.90;;;;;;5064367;27;20059;-85
2023/07/31 00:54:40;;;;;;;0.50;0.50;;;15.90;99.90;;;;;;5084407;27;20046;-86
2023/07/31 00:57:08;;;;;;;0.50;0.50;;;16.00;99.90;;;;;;5081210;28;20067;-86
2023/07/31 00:59:34;;;;;;;0.50;0.50;;;16.20;99.90;;;;;;5083323;27;20044;-86
2023/07/31 01:02:00;;;;;;;0.50;0.50;;;15.80;99.90;;;;;;5069863;27;20039;-90
2023/07/31 01:04:26;;;;;;;0.55;0.55;;;16.00;99.90;;;;;;5082483;28;20058;-89
2023/07/31 01:07:11;;;;;;;0.40;0.40;;;16.00;99.90;;;;;;5080593;28;20036;-85
2023/07/31 01:09:50;;;;;;;0.50;0.50;;;16.10;99.90;;;;;;5082522;28;20054;-85
2023/07/31 01:12:16;;;;;;;0.50;0.50;;;16.00;99.90;;;;;;5066594;28;20039;-86
2023/07/31 01:15:01;;;;;;;0.50;0.50;;;15.80;99.90;;;;;;5082681;28;20048;-83
2023/07/31 01:17:27;;;;;;;0.50;0.50;;;15.80;99.90;;;;;;5080954;28;20062;-83
2023/07/31 01:19:55;;;;;;;0.50;0.50;;;16.10;99.90;;;;;;5083172;27;20039;-84
2023/07/31 01:22:45;;;;;;;0.50;0.50;;;15.90;99.90;;;;;;5079248;28;20131;-83
2023/07/31 01:25:56;;;;;;;0.50;0.50;;;16.10;99.90;;;;;;5081505;28;20055;-84
2023/07/31 01:28:40;;;;;;;0.50;0.50;;;15.70;99.90;;;;;;5077993;28;20051;-82
2023/07/31 01:31:10;;;;;;;0.60;0.60;;;15.90;99.90;;;;;;5083806;27;20049;-82
2023/07/31 01:33:37;;;;;;;0.50;0.50;;;16.10;99.90;;;;;;5081963;28;20073;-83
2023/07/31 01:36:03;;;;;;;0.50;0.50;;;16.00;99.90;;;;;;5078460;28;20055;-82
2023/07/31 01:38:29;;;;;;;0.50;0.50;;;15.90;99.90;;;;;;5087658;28;20538;-83
2023/07/31 01:40:54;;;;;;;0.50;0.50;;;16.00;99.90;;;;;;5079784;28;20056;-82
2023/07/31 01:43:20;;;;;;;0.50;0.50;;;15.90;99.90;;;;;;5077866;28;20651;-84
2023/07/31 01:45:46;;;;;;;0.50;0.50;;;16.20;99.90;;;;;;5078883;27;20048;-84
2023/07/31 01:48:11;;;;;;;0.50;0.50;;;15.70;99.90;;;;;;5080693;28;20139;-84
2023/07/31 01:50:37;;;;;;;0.50;0.50;;;15.80;99.90;;;;;;5065948;28;20051;-83
2023/07/31 01:53:03;;;;;;;0.50;0.50;;;15.80;99.90;;;;;;5086903;28;20138;-82
2023/07/31 01:55:28;;;;;;;0.50;0.50;;;16.10;99.90;;;;;;5099399;28;20552;-84
2023/07/31 01:57:54;;;;;;;0.52;0.52;;;15.70;99.90;;;;;;5082970;28;20043;-85
2023/07/31 02:00:20;;;;;;;0.50;0.50;;;16.00;99.90;;;;;;5083832;28;21148;-84
2023/07/31 02:02:45;;;;;;;0.50;0.50;;;16.10;99.90;;;;;;5085278;28;20109;-84
2023/07/31 02:05:11;;;;;;;0.50;0.50;;;16.20;99.90;;;;;;5080688;28;20789;-84
2023/07/31 02:07:36;;;;;;;0.60;0.60;;;15.90;99.90;;;;;;5066411;28;20046;-85
2023/07/31 02:10:02;;;;;;;0.60;0.60;;;16.20;99.90;;;;;;5080328;28;20044;-85
2023/07/31 02:12:30;;;;;;;0.60;0.60;;;15.80;99.90;;;;;;5081436;28;20052;-84
2023/07/31 02:14:56;;;;;;;0.60;0.60;;;16.20;99.90;;;;;;5082404;28;20046;-84
2023/07/31 02:17:22;;;;;;;0.60;0.60;;;16.20;99.90;;;;;;5083274;28;20572;-84
2023/07/31 02:19:48;;;;;;;0.60;0.60;;;16.40;99.90;;;;;;5085209;28;20043;-84
2023/07/31 02:22:13;;;;;;;0.60;0.60;;;16.40;99.90;;;;;;5079960;28;20867;-84
2023/07/31 02:24:39;;;;;;;0.60;0.60;;;16.10;99.90;;;;;;5080905;28;20039;-85
2023/07/31 02:27:05;;;;;;;0.60;0.60;;;16.30;99.90;;;;;;5081633;28;20629;-85
2023/07/31 02:29:30;;;;;;;0.60;0.60;;;16.20;99.90;;;;;;5066683;28;20078;-84
2023/07/31 02:31:56;;;;;;;0.60;0.60;;;15.90;99.90;;;;;;5084412;28;20770;-83
2023/07/31 02:34:22;;;;;;;0.60;0.60;;;16.20;99.90;;;;;;5086613;28;20509;-83
2023/07/31 02:36:47;;;;;;;0.60;0.60;;;15.90;99.90;;;;;;5070067;28;20083;-87
2023/07/31 02:39:13;;;;;;;0.60;0.60;;;16.20;99.90;;;;;;5070056;28;20040;-84
2023/07/31 02:41:38;;;;;;;0.70;0.70;;;15.90;99.90;;;;;;5086787;28;20039;-86
2023/07/31 02:44:04;;;;;;;0.60;0.60;;;15.90;99.90;;;;;;5083846;28;20051;-84
2023/07/31 02:46:30;;;;;;;0.68;0.68;;;16.30;99.90;;;;;;5070732;28;20043;-84
2023/07/31 02:48:55;;;;;;;0.60;0.60;;;16.50;99.90;;;;;;5081217;28;20115;-85
2023/07/31 02:51:21;;;;;;;0.60;0.60;;;16.20;99.90;;;;;;5085696;28;20712;-85
2023/07/31 02:53:47;;;;;;;0.70;0.70;;;16.00;99.90;;;;;;5082345;28;20104;-86
2023/07/31 02:56:13;;;;;;;0.60;0.60;;;16.00;99.90;;;;;;5082904;28;20035;-85
2023/07/31 02:58:39;;;;;;;0.70;0.70;;;16.10;99.90;;;;;;5082338;28;20093;-85
2023/07/31 03:01:05;;;;;;;0.70;0.70;;;16.30;99.90;;;;;;5088801;28;20047;-85
2023/07/31 03:03:31;;;;;;;0.60;0.60;;;15.90;99.90;;;;;;5086664;28;20116;-83
2023/07/31 03:05:56;;;;;;;0.60;0.60;;;16.00;99.90;;;;;;5086641;28;20652;-85
2023/07/31 03:08:23;;;;;;;0.60;0.60;;;16.50;99.90;;;;;;5087881;28;20124;-86
2023/07/31 03:10:48;;;;;;;0.60;0.60;;;16.20;99.90;;;;;;5085492;28;20062;-85
2023/07/31 03:13:14;;;;;;;0.60;0.60;;;16.40;99.90;;;;;;5085548;28;20048;-85
2023/07/31 03:15:43;;;;;;;0.60;0.60;;;16.60;99.90;;;;;;5086170;28;20051;-86
2023/07/31 03:18:08;;;;;;;0.70;0.70;;;16.60;99.90;;;;;;5084841;27;20090;-86
2023/07/31 03:20:34;;;;;;;0.70;0.70;;;16.10;99.90;;;;;;5087608;28;20134;-84
2023/07/31 03:23:00;;;;;;;0.63;0.63;;;16.50;99.90;;;;;;5084535;28;20044;-84
2023/07/31 03:25:25;;;;;;;0.68;0.68;;;16.40;99.90;;;;;;5086508;28;20069;-85
2023/07/31 03:27:51;;;;;;;0.70;0.70;;;16.20;99.90;;;;;;5085407;28;20048;-85
2023/07/31 03:30:17;;;;;;;0.70;0.70;;;16.20;99.90;;;;;;5086166;28;20074;-85
2023/07/31 03:32:42;;;;;;;0.70;0.70;;;16.60;99.90;;;;;;5066171;28;20051;-84
2023/07/31 03:35:08;;;;;;;0.70;0.70;;;16.80;99.90;;;;;;5088040;28;20408;-84
2023/07/31 03:37:34;;;;;;;0.75;0.75;;;16.40;99.90;;;;;;5086308;28;20105;-85
2023/07/31 03:39:59;;;;;;;0.70;0.70;;;16.20;99.90;;;;;;5086778;28;20120;-84
2023/07/31 03:42:25;;;;;;;0.75;0.75;;;16.60;99.90;;;;;;5082401;28;20545;-85
2023/07/31 03:44:50;;;;;;;0.70;0.70;;;16.60;99.90;;;;;;5084083;28;20059;-84
2023/07/31 03:47:16;;;;;;;0.70;0.70;;;16.70;99.90;;;;;;5080895;28;20096;-85
2023/07/31 03:49:42;;;;;;;0.68;0.68;;;16.50;99.90;;;;;;5070862;28;20031;-84
2023/07/31 03:52:07;;;;;;;0.70;0.70;;;16.80;99.90;;;;;;5083974;28;20054;-85
2023/07/31 03:54:33;;;;;;;0.70;0.70;;;16.90;99.90;;;;;;5088976;28;20040;-83
2023/07/31 03:56:59;;;;;;;0.73;0.73;;;16.40;99.90;;;;;;5069667;28;20071;-86
2023/07/31 03:59:24;;;;;;;0.75;0.75;;;17.00;99.90;;;;;;5087531;28;20082;-87
2023/07/31 04:01:50;;;;;;;0.70;0.70;;;16.50;99.90;;;;;;5080586;28;20407;-85
2023/07/31 04:04:15;;;;;;;0.77;0.77;;;16.40;99.90;;;;;;5084967;28;20056;-86
2023/07/31 04:06:41;;;;;;;0.75;0.75;;;16.50;99.90;;;;;;5084667;28;20058;-87
2023/07/31 04:09:07;;;;;;;0.80;0.80;;;16.30;99.90;;;;;;5089021;28;21121;-85
2023/07/31 04:11:32;;;;;;;0.73;0.73;;;16.60;99.90;;;;;;5089157;28;20542;-82
2023/07/31 04:13:58;;;;;;;0.80;0.80;;;17.00;99.90;;;;;;5087374;28;20523;-84
2023/07/31 04:16:24;;;;;;;0.80;0.80;;;16.90;99.90;;;;;;5068889;28;20123;-85
2023/07/31 04:18:49;;;;;;;0.75;0.75;;;16.90;99.90;;;;;;5100486;28;20044;-84
2023/07/31 04:21:15;;;;;;;0.80;0.80;;;16.40;99.90;;;;;;5064266;28;20043;-82
2023/07/31 04:23:41;;;;;;;0.80;0.80;;;16.50;99.90;;;;;;5085972;28;20074;-83
2023/07/31 04:26:06;;;;;;;0.70;0.70;;;17.10;99.90;;;;;;5085873;28;20142;-82
2023/07/31 04:28:32;;;;;;;0.70;0.70;;;16.40;99.90;;;;;;5085551;28;20093;-83
2023/07/31 04:30:58;;;;;;;0.70;0.70;;;17.10;99.90;;;;;;5084681;28;20039;-83
2023/07/31 04:33:24;;;;;;;0.80;0.80;;;16.60;99.90;;;;;;5085135;28;20158;-85
2023/07/31 04:35:52;;;;;;;0.70;0.70;;;17.10;99.90;;;;;;5085421;28;20530;-86
2023/07/31 04:38:21;;;;;;;0.80;0.80;;;16.50;99.90;;;;;;5082682;28;20096;-82
2023/07/31 04:40:47;;;;;;;0.80;0.80;;;16.70;99.90;;;;;;5083605;28;20070;-84
2023/07/31 04:43:13;;;;;;;0.80;0.80;;;17.20;99.90;;;;;;5083968;28;20429;-86
2023/07/31 04:45:39;;;;;;;0.80;0.80;;;17.10;99.90;;;;;;5081324;28;20048;-84
2023/07/31 04:48:04;;;;;;;0.75;0.75;;;17.00;99.90;;;;;;5084763;28;20047;-82
2023/07/31 04:50:30;;;;;;;0.80;0.80;;;16.70;99.90;;;;;;5080172;28;20105;-83
2023/07/31 04:52:56;;;;;;;0.70;0.70;;;16.50;99.90;;;;;;5085883;28;20126;-82
2023/07/31 04:55:22;;;;;;;0.80;0.80;;;17.10;99.90;;;;;;5083496;28;20044;-83
2023/07/31 04:57:47;;;;;;;0.80;0.80;;;16.60;99.90;;;;;;5083165;28;20071;-83
2023/07/31 05:00:13;;;;;;;0.90;0.90;;;17.30;99.90;;;;;;5083030;28;20067;-86
2023/07/31 05:02:39;;;;;;;0.70;0.70;;;16.60;99.90;;;;;;5064673;28;20506;-83
2023/07/31 05:05:05;;;;;;;0.80;0.80;;;17.20;99.90;;;;;;5078976;28;20044;-86
2023/07/31 05:07:30;;;;;;;0.80;0.80;;;17.00;99.90;;;;;;5082557;28;20047;-88
2023/07/31 05:09:56;;;;;;;0.80;0.80;;;17.00;99.90;;;;;;5079465;28;20117;-87
2023/07/31 05:12:22;;;;;;;0.80;0.80;;;16.70;99.90;;;;;;5086915;28;20042;-91
2023/07/31 05:14:47;;;;;;;0.80;0.80;;;17.00;99.90;;;;;;5065112;28;20040;-89
2023/07/31 05:17:13;;;;;;;0.90;0.90;;;17.40;99.90;;;;;;5069745;28;20118;-88
2023/07/31 05:19:38;;;;;;;0.82;0.82;;;17.40;99.90;;;;;;5068088;28;20036;-89
2023/07/31 05:22:04;;;;;;;0.90;0.90;;;17.40;99.90;;;;;;5086976;28;20115;-87
2023/07/31 05:24:30;;;;;;;0.90;0.90;;;16.80;99.90;;;;;;5066530;28;20047;-90
2023/07/31 05:26:56;;;;;;;0.95;0.95;;;17.10;99.90;;;;;;5069729;28;20039;-87
2023/07/31 05:29:21;;;;;;;0.90;0.90;;;16.80;99.90;;;;;;5083646;28;20075;-88
2023/07/31 05:31:47;;;;;;;0.85;0.85;;;17.50;99.90;;;;;;5087786;28;20102;-87
2023/07/31 05:34:12;;;;;;;1.00;1.00;;;16.80;99.90;;;;;;5087282;28;20146;-85
2023/07/31 05:36:38;;;;;;;0.90;0.90;;;17.50;99.90;;;;;;5087307;28;20058;-85
2023/07/31 05:39:07;;;;;;;0.85;0.85;;;17.10;99.90;;;;;;5085882;28;20101;-84
2023/07/31 05:41:32;;;;;;;0.90;0.90;;;16.90;99.90;;;;;;5084301;28;20070;-86
2023/07/31 05:43:58;;;;;;;0.98;0.98;;;17.20;99.90;;;;;;5085520;28;20071;-85
2023/07/31 05:46:24;;;;;;;1.00;1.00;;;16.90;99.90;;;;;;5085563;28;20096;-88
2023/07/31 05:48:49;;;;;;;0.95;0.95;;;17.00;99.90;;;;;;5087350;28;20663;-88
2023/07/31 05:51:15;;;;;;;0.90;0.90;;;16.80;99.90;;;;;;5085536;28;20054;-85
2023/07/31 05:53:41;;;;;;;0.82;0.82;;;16.80;99.90;;;;;;5087302;28;20090;-86
2023/07/31 05:56:07;;;;;;;0.90;0.90;;;16.80;99.90;;;;;;5081137;28;20500;-89
2023/07/31 05:58:32;;;;;;;1.08;1.08;;;16.80;99.90;;;;;;5063217;28;20039;-83
2023/07/31 06:00:58;;;;;;;1.00;1.00;;;17.00;99.90;;;;;;5082291;28;20050;-85
2023/07/31 06:03:24;;;;;;;1.00;1.00;;;16.90;99.90;;;;;;5080580;28;20047;-85
2023/07/31 06:05:49;;;;;;;1.05;1.05;;;17.10;99.90;;;;;;5076666;28;20051;-87
2023/07/31 06:08:15;;;;;;;1.10;1.10;;;17.30;99.90;;;;;;5079914;28;20115;-87
2023/07/31 06:10:41;;;;;;;0.82;0.82;;;17.40;99.90;;;;;;5083339;28;20081;-83
2023/07/31 06:13:06;;;;;;;1.00;1.00;;;17.30;99.90;;;;;;5064333;28;20081;-88
2023/07/31 06:15:32;;;;;;;0.85;0.85;;;16.90;99.90;;;;;;5080243;28;20123;-85
2023/07/31 06:17:58;;;;;;;0.90;0.90;;;17.30;99.90;;;;;;5078218;28;20050;-83
2023/07/31 06:20:24;;;;;;;0.90;0.90;;;17.00;99.90;;;;;;5084984;28;20142;-87
2023/07/31 06:22:50;;;;;;;1.00;1.00;;;17.30;99.90;;;;;;5082363;28;20051;-85
2023/07/31 06:25:15;;;;;;;0.90;0.90;;;17.00;99.90;;;;;;5083279;28;20488;-84
2023/07/31 06:27:41;;;;;;;0.93;0.93;;;17.10;99.90;;;;;;5081901;28;20067;-85
2023/07/31 06:30:07;;;;;;;0.90;0.90;;;17.30;99.90;;;;;;5083003;28;20090;-85
2023/07/31 06:32:33;;;;;;;0.90;0.90;;;17.00;99.90;;;;;;5079358;28;20051;-83
2023/07/31 06:34:58;;;;;;;0.80;0.80;;;17.00;99.90;;;;;;5080506;28;20051;-85
2023/07/31 06:37:24;;;;;;;1.00;1.00;;;17.30;99.90;;;;;;5079578;28;20527;-84
2023/07/31 06:39:50;;;;;;;0.90;0.90;;;17.00;99.90;;;;;;5082196;28;20127;-85
2023/07/31 06:42:15;;;;;;;1.00;1.00;;;17.40;99.90;;;;;;5067837;28;20260;-85
2023/07/31 06:44:41;;;;;;;0.80;0.80;;;17.30;99.90;;;;;;5082041;28;20075;-85
2023/07/31 06:47:06;;;;;;;0.90;0.90;;;17.20;99.90;;;;;;5084716;28;20036;-88
2023/07/31 06:49:32;;;;;;;1.00;1.00;;;17.00;99.90;;;;;;5079667;28;20056;-85
2023/07/31 06:51:58;;;;;;;0.90;0.90;;;17.10;99.90;;;;;;5063364;28;20122;-84
2023/07/31 06:54:23;;;;;;;0.90;0.90;;;17.20;99.90;;;;;;5087670;28;20043;-84
2023/07/31 06:56:49;;;;;;;0.90;0.90;;;17.00;99.90;;;;;;5080260;28;20523;-87
2023/07/31 06:59:14;;;;;;;0.90;0.90;;;17.30;99.90;;;;;;5083879;28;20468;-84
2023/07/31 07:01:40;;;;;;;0.85;0.85;;;16.80;99.90;;;;;;5067911;28;20043;-82
2023/07/31 07:04:06;;;;;;;0.90;0.90;;;17.00;99.90;;;;;;5084098;28;20051;-84
2023/07/31 07:06:31;;;;;;;0.70;0.70;;;17.20;99.90;;;;;;5081976;28;20562;-85
2023/07/31 07:08:57;;;;;;;0.90;0.90;;;17.00;99.90;;;;;;5070399;28;20051;-84
2023/07/31 07:11:23;;;;;;;0.85;0.85;;;17.20;99.90;;;;;;5080985;28;20507;-86
2023/07/31 07:13:49;;;;;;;0.85;0.85;;;17.10;99.90;;;;;;5071317;28;20044;-83
2023/07/31 07:16:14;;;;;;;0.82;0.82;;;17.30;99.90;;;;;;5086340;28;20048;-84
2023/07/31 07:18:40;;;;;;;0.80;0.80;;;17.20;99.90;;;;;;5085557;28;20096;-83
2023/07/31 07:21:06;;;;;;;0.98;0.98;;;16.90;99.90;;;;;;5087125;28;20058;-84
2023/07/31 07:23:31;;;;;;;0.70;0.70;;;17.30;99.90;;;;;;5088677;28;20063;-85
2023/07/31 07:25:57;;;;;;;0.70;0.70;;;17.10;99.90;;;;;;5069513;28;20054;-85
2023/07/31 07:28:23;;;;;;;0.90;0.90;;;17.00;99.90;;;;;;5086242;28;20039;-84
2023/07/31 07:30:55;;;;;;;0.95;0.95;;;17.50;99.90;;;;;;5071486;28;20043;-87
2023/07/31 07:33:21;;;;;;;0.90;0.90;;;17.40;99.90;;;;;;5084761;28;20364;-87
2023/07/31 07:35:46;;;;;;;0.60;0.60;;;17.70;99.90;;;;;;5090076;28;20597;-86
2023/07/31 07:38:14;;;;;;;1.03;1.03;;;17.30;99.90;;;;;;5086453;28;20044;-86
2023/07/31 07:40:40;;;;;;;0.90;0.90;;;17.40;99.90;;;;;;5089764;28;20051;-85
2023/07/31 07:43:06;;;;;;;1.08;1.08;;;17.30;99.90;;;;;;5085797;28;20515;-84
2023/07/31 07:45:32;;;;;;;1.05;1.05;;;17.00;99.90;;;;;;5085261;28;20052;-83
2023/07/31 07:47:59;;;;;;;0.98;0.98;;;17.40;99.90;;;;;;5070492;28;20044;-86
2023/07/31 07:50:24;;;;;;;0.98;0.98;;;17.60;99.90;;;;;;5082514;28;20055;-85
2023/07/31 07:52:51;;;;;;;1.08;1.08;;;17.20;99.90;;;;;;5070917;28;20039;-82
2023/07/31 07:55:16;;;;;;;1.02;1.02;;;17.50;99.90;;;;;;5086163;28;20043;-83
2023/07/31 07:57:44;;;;;;;0.98;0.98;;;17.30;99.90;;;;;;5088667;28;20077;-85
2023/07/31 08:00:10;;;;;;;1.10;1.10;;;17.40;99.90;;;;;;5069436;28;20116;-83
2023/07/31 08:02:36;;;;;;;1.05;1.05;;;17.70;99.90;;;;;;5083690;28;20047;-83
2023/07/31 08:05:01;;;;;;;0.80;0.80;;;17.60;99.90;;;;;;5082576;28;20076;-83
2023/07/31 08:07:27;;;;;;;1.13;1.13;;;17.40;99.90;;;;;;5082366;28;20181;-85
2023/07/31 08:09:53;;;;;;;1.10;1.10;;;17.70;99.90;;;;;;5080818;28;20040;-85
2023/07/31 08:12:18;;;;;;;1.13;1.13;;;17.40;99.90;;;;;;5085460;28;20108;-84
2023/07/31 08:14:44;;;;;;;1.13;1.13;;;17.30;99.90;;;;;;5086330;28;20071;-86
2023/07/31 08:17:10;;;;;;;1.23;1.23;;;17.20;99.90;;;;;;5085965;28;20056;-84
2023/07/31 08:19:35;;;;;;;1.25;1.25;;;17.40;99.90;;;;;;5085679;28;20563;-83
2023/07/31 08:22:01;;;;;;;1.23;1.23;;;17.70;99.90;;;;;;5104570;28;20059;-84
2023/07/31 08:24:27;;;;;;;1.20;1.20;;;17.70;99.90;;;;;;5086595;28;20121;-83
2023/07/31 08:26:52;;;;;;;1.23;1.23;;;17.40;99.90;;;;;;5086577;28;20135;-85
2023/07/31 08:29:18;;;;;;;1.27;1.27;;;17.50;99.90;;;;;;5088755;28;20488;-85
2023/07/31 08:31:44;;;;;;;1.23;1.23;;;17.80;99.90;;;;;;5071074;28;20050;-84
2023/07/31 08:34:09;;;;;;;1.30;1.30;;;17.80;99.90;;;;;;5087871;28;20047;-85
2023/07/31 08:36:35;;;;;;;1.35;1.33;;;18.00;99.90;;;;;;5088341;28;20040;-86
2023/07/31 08:39:00;;;;;;;1.23;1.23;;;18.00;99.90;;;;;;5088616;28;20036;-84
2023/07/31 08:41:27;;;;;;;1.25;1.25;;;17.60;99.90;;;;;;5089251;28;20476;-86
2023/07/31 08:43:54;;;;;;;1.52;1.42;;;18.20;99.90;;;;;;5084380;28;20063;-83
2023/07/31 08:46:20;;;;;;;1.35;1.35;;;18.20;99.90;;;;;;5088348;28;20082;-85
2023/07/31 08:48:47;;;;;;;1.25;1.25;;;18.10;99.90;;;;;;5085551;28;20043;-84
2023/07/31 08:51:15;;;;;;;1.38;1.38;;;18.50;99.90;;;;;;5085875;28;20069;-86
2023/07/31 08:53:41;;;;;;;1.50;1.45;;;18.50;99.90;;;;;;5086828;28;20111;-87
2023/07/31 08:56:07;;;;;;;1.52;1.42;;;18.40;99.90;;;;;;5069629;28;20440;-85
2023/07/31 08:58:34;;;;;;;1.63;1.52;;;18.20;99.90;;;;;;5085316;28;22457;-85
2023/07/31 09:01:03;;;;;;;1.60;1.50;;;18.60;99.90;;;;;;5084315;28;20081;-85
2023/07/31 09:03:34;;;;;;;1.60;1.50;;;18.10;99.90;;;;;;5078727;28;20044;-85
2023/07/31 09:06:00;;;;;;;1.63;1.52;;;18.20;99.90;;;;;;5081568;28;20048;-85
2023/07/31 09:08:31;;;;;;;1.70;1.60;;;18.20;99.90;;;;;;5084276;28;20032;-84
2023/07/31 09:11:01;;;;;;;1.70;1.60;;;18.30;99.90;;;;;;5087325;28;20071;-85
2023/07/31 09:13:29;;;;;;;1.80;1.70;;;18.80;99.90;;;;;;5081120;28;20054;-88
2023/07/31 09:15:55;;;;;;;1.80;1.70;;;18.60;99.90;;;;;;5080187;28;20108;-85
2023/07/31 09:18:22;;;;;;;1.85;1.75;;;18.60;99.90;;;;;;5063829;28;20051;-86
2023/07/31 09:21:07;;;;;;;1.90;1.80;;;18.20;99.90;;;;;;5084300;28;20071;-86
2023/07/31 09:23:47;;;;;;;2.10;2.00;;;18.70;99.90;;;;;;5084135;28;20108;-85
2023/07/31 09:26:33;;;;;;;2.00;1.90;;;18.30;99.90;;;;;;5065510;28;20044;-84
2023/07/31 09:29:05;;;;;;;2.10;2.00;;;18.30;99.90;;;;;;5085346;28;20043;-84
2023/07/31 09:31:42;;;;;;;2.00;1.90;;;18.60;99.90;;;;;;5087755;27;20465;-84
2023/07/31 09:34:08;;;;;;;2.00;1.90;;;18.40;99.90;;;;;;5084966;28;20047;-86
2023/07/31 09:36:40;;;;;;;2.08;1.98;;;18.80;99.90;;;;;;5084146;28;20457;-84
2023/07/31 09:39:09;;;;;;;2.10;2.00;;;18.30;99.90;;;;;;5084606;28;20140;-88
2023/07/31 09:41:44;;;;;;;2.10;2.00;;;18.80;99.90;;;;;;5069460;28;20185;-86
2023/07/31 09:44:10;;;;;;;2.22;2.13;;;18.70;99.90;;;;;;5085447;28;20063;-84
2023/07/31 09:46:37;;;;;;;2.17;2.08;;;18.80;99.90;;;;;;5087764;28;20039;-86
2023/07/31 09:49:11;;;;;;;2.20;2.10;;;18.80;99.90;;;;;;5102569;27;20077;-83
2023/07/31 09:51:40;;;;;;;2.30;2.20;;;18.40;99.90;;;;;;5070127;28;20142;-83
2023/07/31 09:54:11;;;;;;;2.25;2.15;;;18.70;99.90;;;;;;5084451;28;20047;-87
2023/07/31 09:56:42;;;;;;;2.25;2.15;;;18.90;99.90;;;;;;5086122;28;20055;-87
2023/07/31 09:59:11;;;;;;;2.20;2.10;;;18.90;99.90;;;;;;5081958;28;20123;-85
2023/07/31 10:01:39;;;;;;;2.33;2.22;;;18.40;99.90;;;;;;5065895;28;20105;-83
2023/07/31 10:04:07;;;;;;;2.20;2.10;;;18.50;99.90;;;;;;5082539;28;20043;-86
2023/07/31 10:06:35;;;;;;;2.22;2.13;;;19.10;99.90;;;;;;5083588;28;20107;-85
2023/07/31 10:09:13;;;;;;;2.28;2.17;;;19.00;99.90;;;;;;5086083;28;20047;-87
2023/07/31 10:11:43;;;;;;;2.22;2.13;;;18.60;99.90;;;;;;5086662;28;20175;-84
2023/07/31 10:14:10;;;;;;;2.17;2.08;;;19.00;99.90;;;;;;5088291;28;20079;-86
2023/07/31 10:16:39;;;;;;;2.42;2.33;;;18.70;99.90;;;;;;5084520;28;20068;-85
2023/07/31 10:19:05;;;;;;;2.35;2.25;;;19.30;99.90;;;;;;5085376;28;20404;-85
2023/07/31 10:21:34;;;;;;;2.38;2.28;;;18.80;99.90;;;;;;5086361;28;20047;-84
2023/07/31 10:24:03;;;;;;;2.30;2.20;;;19.10;99.90;;;;;;5083276;28;20898;-83
2023/07/31 10:26:30;;;;;;;2.38;2.28;;;19.50;99.90;;;;;;5065989;28;20086;-84
2023/07/31 10:28:57;;;;;;;2.15;2.05;;;19.50;99.90;;;;;;5082382;28;20180;-84
2023/07/31 10:31:24;;;;;;;2.55;2.45;;;19.70;99.90;;;;;;5086451;28;20115;-84
2023/07/31 10:33:54;;;;;;;2.20;2.10;;;19.50;99.90;;;;;;5062623;28;20052;-84
2023/07/31 10:36:20;;;;;;;2.20;2.10;;;19.70;99.90;;;;;;5086101;28;20054;-88
2023/07/31 10:38:48;;;;;;;2.28;2.17;;;19.30;99.90;;;;;;5070531;28;20043;-82
2023/07/31 10:41:14;;;;;;;2.33;2.22;;;19.50;99.90;;;;;;5081451;28;20071;-84
2023/07/31 10:43:40;;;;;;;2.13;2.03;;;19.20;99.90;;;;;;5067284;28;20071;-83
2023/07/31 10:46:13;;;;;;;1.98;1.88;;;19.80;99.90;;;;;;5086192;28;20058;-85
2023/07/31 10:48:41;;;;;;;2.17;2.08;;;19.60;99.90;;;;;;5087402;28;20078;-83
2023/07/31 10:51:13;;;;;;;2.00;1.90;;;19.50;99.90;;;;;;5087815;28;20051;-84
2023/07/31 10:53:40;;;;;;;1.90;1.80;;;20.00;99.90;;;;;;5087997;28;20042;-84
2023/07/31 10:56:08;;;;;;;1.90;1.80;;;19.40;99.90;;;;;;5090126;28;20047;-86
2023/07/31 10:58:34;;;;;;;1.98;1.88;;;19.30;99.90;;;;;;5089382;28;20127;-85
2023/07/31 11:01:03;;;;;;;1.98;1.88;;;19.50;99.90;;;;;;5087452;28;20094;-86
2023/07/31 11:03:51;;;;;;;1.92;1.83;;;19.80;99.90;;;;;;5088875;28;20036;-85
2023/07/31 11:06:17;;;;;;;2.00;1.90;;;19.60;99.90;;;;;;5087866;28;20051;-86
2023/07/31 11:08:46;;;;;;;1.92;1.83;;;19.30;99.90;;;;;;5089111;28;20110;-90
2023/07/31 11:11:17;;;;;;;2.00;1.90;;;19.30;99.90;;;;;;5088962;28;20817;-86
2023/07/31 11:13:50;;;;;;;2.00;1.90;;;19.40;99.90;;;;;;5090568;28;20055;-85
2023/07/31 11:16:16;;;;;;;1.87;1.77;;;19.40;99.90;;;;;;5088215;28;20047;-86
2023/07/31 11:18:45;;;;;;;1.85;1.75;;;20.00;99.90;;;;;;5086173;28;20134;-84
2023/07/31 11:21:16;;;;;;;1.75;1.65;;;19.60;99.90;;;;;;5090518;28;20492;-82
2023/07/31 11:23:49;;;;;;;1.67;1.58;;;19.40;99.90;;;;;;5086154;28;20751;-84
2023/07/31 11:26:19;;;;;;;1.98;1.88;;;19.50;99.90;;;;;;5088333;28;20055;-88
2023/07/31 11:28:47;;;;;;;1.85;1.75;;;19.50;99.90;;;;;;5072443;28;20077;-84
2023/07/31 11:31:13;;;;;;;1.77;1.67;;;19.30;99.90;;;;;;5083709;28;20050;-84
2023/07/31 11:33:39;;;;;;;1.80;1.70;;;19.70;99.90;;;;;;5088594;28;20044;-85
2023/07/31 11:36:05;;;;;;;1.88;1.77;;;19.60;99.90;;;;;;5085705;28;20169;-85
2023/07/31 11:38:33;;;;;;;1.70;1.60;;;19.90;99.90;;;;;;5088636;28;20091;-85
2023/07/31 11:41:02;;;;;;;1.98;1.88;;;19.40;99.90;;;;;;5086703;28;20038;-83
2023/07/31 11:43:28;;;;;;;1.98;1.88;;;19.90;99.90;;;;;;5084176;28;20185;-87
2023/07/31 11:45:59;;;;;;;1.73;1.63;;;19.40;99.90;;;;;;5093841;28;20055;-86
2023/07/31 11:48:34;;;;;;;1.73;1.63;;;20.00;99.90;;;;;;5086542;28;20036;-85
2023/07/31 11:51:04;;;;;;;1.75;1.65;;;19.90;99.90;;;;;;5070337;28;20043;-84
2023/07/31 11:53:32;;;;;;;1.52;1.50;;;20.20;99.90;;;;;;5089612;28;20047;-90
2023/07/31 11:56:00;;;;;;;1.60;1.55;;;19.80;99.90;;;;;;5084066;28;20042;-86
2023/07/31 11:58:26;;;;;;;1.60;1.58;;;20.50;99.90;;;;;;5080293;28;20047;-85
2023/07/31 12:00:53;;;;;;;1.60;1.55;;;19.80;99.90;;;;;;5086910;28;20039;-83
2023/07/31 12:03:19;;;;;;;1.77;1.67;;;20.30;99.90;;;;;;5084102;28;20396;-85
2023/07/31 12:05:48;;;;;;;1.85;1.75;;;19.70;99.90;;;;;;5088217;28;20039;-85
2023/07/31 12:08:13;;;;;;;1.67;1.60;;;20.10;99.90;;;;;;5069032;28;20197;-87
2023/07/31 12:10:40;;;;;;;1.75;1.65;;;19.50;99.90;;;;;;5070632;28;20548;-85
2023/07/31 12:13:14;;;;;;;1.92;1.83;;;19.30;99.90;;;;;;5081526;28;20060;-87
2023/07/31 12:15:41;;;;;;;1.80;1.70;;;19.90;99.90;;;;;;5088012;28;20039;-84
2023/07/31 12:18:12;;;;;;;1.65;1.58;;;19.50;99.90;;;;;;5087393;28;20043;-86
2023/07/31 12:20:46;;;;;;;1.65;1.60;;;19.80;99.90;;;;;;5089570;28;20082;-84
2023/07/31 12:23:18;;;;;;;1.80;1.70;;;19.70;99.90;;;;;;5088097;28;20524;-85
2023/07/31 12:25:44;;;;;;;1.85;1.75;;;20.00;99.90;;;;;;5106803;28;20043;-87
2023/07/31 12:28:12;;;;;;;1.45;1.45;;;20.30;99.90;;;;;;5070117;28;20556;-85
2023/07/31 12:30:40;;;;;;;1.63;1.58;;;20.30;99.90;;;;;;5086150;28;20043;-91
2023/07/31 12:33:11;;;;;;;1.52;1.50;;;20.00;99.90;;;;;;5085887;28;20051;-86
2023/07/31 12:35:40;;;;;;;1.70;1.65;;;20.60;99.90;;;;;;5087319;28;20462;-85
2023/07/31 12:38:06;;;;;;;1.65;1.60;;;20.50;99.90;;;;;;5088319;28;20496;-90
2023/07/31 12:40:32;;;;;;;1.50;1.50;;;20.40;99.90;;;;;;5087197;27;20113;-83
2023/07/31 12:43:00;;;;;;;1.50;1.50;;;20.40;99.90;;;;;;5088326;27;20040;-87
2023/07/31 12:45:26;;;;;;;1.65;1.60;;;20.20;99.90;;;;;;5087051;28;20040;-85
2023/07/31 12:47:52;;;;;;;1.75;1.70;;;20.30;99.90;;;;;;5089062;27;20708;-85